createdAt,value
2022-10-11T00:01:06.582Z,11.18
2022-10-11T00:03:39.909Z,11.52
2022-10-11T00:06:09.619Z,14.90
2022-10-11T00:08:38.062Z,17.98
2022-10-11T00:11:09.311Z,11.18
2022-10-11T00:13:38.015Z,11.85
2022-10-11T00:16:10.025Z,14.45
2022-10-11T00:18:38.905Z,7.60
2022-10-11T00:21:09.681Z,11.57
2022-10-11T00:23:38.111Z,10.80
2022-10-11T00:26:10.074Z,12.32
2022-10-11T00:28:38.735Z,11.23
2022-10-11T00:31:09.653Z,8.63
2022-10-11T00:33:38.361Z,15.95
2022-10-11T00:36:08.710Z,15.48
2022-10-11T00:38:37.766Z,16.38
2022-10-11T00:41:06.631Z,17.58
2022-10-11T00:43:37.162Z,13.15
2022-10-11T00:46:25.577Z,19.38
2022-10-11T00:48:58.648Z,12.90
2022-10-11T00:51:39.127Z,10.93
2022-10-11T00:54:10.506Z,13.35
2022-10-11T00:56:41.012Z,11.88
2022-10-11T00:59:16.301Z,22.52
2022-10-11T01:01:44.845Z,16.23
2022-10-11T01:04:13.564Z,12.95
2022-10-11T01:06:42.776Z,14.35
2022-10-11T01:09:12.152Z,15.80
2022-10-11T01:11:42.842Z,15.50
2022-10-11T01:14:43.732Z,15.65
2022-10-11T01:17:23.103Z,12.13
2022-10-11T01:20:08.919Z,11.98
2022-10-11T01:23:15.493Z,11.13
2022-10-11T01:25:57.164Z,13.25
2022-10-11T01:28:40.135Z,10.50
2022-10-11T01:31:16.885Z,15.50
2022-10-11T01:33:49.930Z,20.98
2022-10-11T01:36:27.864Z,14.75
2022-10-11T01:39:00.753Z,10.45
2022-10-11T01:41:32.148Z,16.27
2022-10-11T01:44:03.088Z,14.60
2022-10-11T01:46:34.147Z,16.83
2022-10-11T01:49:03.499Z,11.20
2022-10-11T01:51:35.850Z,14.95
2022-10-11T01:54:18.678Z,15.00
2022-10-11T01:57:26.309Z,15.57
2022-10-11T02:00:02.277Z,13.70
2022-10-11T02:02:49.804Z,12.50
2022-10-11T02:05:28.198Z,13.48
2022-10-11T02:08:01.494Z,13.18
2022-10-11T02:10:35.463Z,14.90
2022-10-11T02:13:09.076Z,13.60
2022-10-11T02:15:41.433Z,19.17
2022-10-11T02:18:16.117Z,15.77
2022-10-11T02:20:46.591Z,14.68
2022-10-11T02:23:18.157Z,14.02
2022-10-11T02:25:47.230Z,14.25
2022-10-11T02:28:21.086Z,19.40
2022-10-11T02:30:53.212Z,13.85
2022-10-11T02:33:28.860Z,18.67
2022-10-11T02:36:04.311Z,17.77
2022-10-11T02:38:38.335Z,12.10
2022-10-11T02:41:13.605Z,12.30
2022-10-11T02:43:46.745Z,9.57
2022-10-11T02:46:17.637Z,13.35
2022-10-11T02:48:47.519Z,14.43
2022-10-11T02:51:16.355Z,11.73
2022-10-11T02:53:44.824Z,15.13
2022-10-11T02:56:13.141Z,11.70
2022-10-11T02:58:41.626Z,10.88
2022-10-11T03:01:10.170Z,11.35
2022-10-11T03:03:38.546Z,11.52
2022-10-11T03:06:09.351Z,10.95
2022-10-11T03:08:37.621Z,9.90
2022-10-11T03:11:05.885Z,11.65
2022-10-11T03:13:34.395Z,12.35
2022-10-11T03:16:07.221Z,14.32
2022-10-11T03:18:36.202Z,11.13
2022-10-11T03:21:04.732Z,11.73
2022-10-11T03:23:34.475Z,9.98
2022-10-11T03:26:03.455Z,9.63
2022-10-11T03:28:32.381Z,10.57
2022-10-11T03:31:00.980Z,7.78
2022-10-11T03:33:29.785Z,7.93
2022-10-11T03:35:58.056Z,8.77
2022-10-11T03:38:26.635Z,13.05
2022-10-11T03:40:56.519Z,11.55
2022-10-11T03:43:24.793Z,9.45
2022-10-11T03:45:53.027Z,17.35
2022-10-11T03:48:21.566Z,7.35
2022-10-11T03:50:49.901Z,7.22
2022-10-11T03:53:18.143Z,9.35
2022-10-11T03:55:46.712Z,8.32
2022-10-11T03:58:16.426Z,7.28
2022-10-11T04:00:44.707Z,6.10
2022-10-11T04:03:13.127Z,6.30
2022-10-11T04:05:41.497Z,12.05
2022-10-11T04:08:12.130Z,5.80
2022-10-11T04:10:41.234Z,8.40
2022-10-11T04:13:11.380Z,9.70
2022-10-11T04:15:41.558Z,6.38
2022-10-11T04:18:10.181Z,6.47
2022-10-11T04:20:38.431Z,12.40
2022-10-11T04:23:06.838Z,7.28
2022-10-11T04:25:35.411Z,8.77
2022-10-11T04:28:03.795Z,9.57
2022-10-11T04:30:32.056Z,5.82
2022-10-11T04:33:02.080Z,12.57
2022-10-11T04:35:30.449Z,9.95
2022-10-11T04:37:58.671Z,12.18
2022-10-11T04:40:27.357Z,10.43
2022-10-11T04:42:56.039Z,7.90
2022-10-11T04:45:24.321Z,10.50
2022-10-11T04:47:53.236Z,7.72
2022-10-11T04:50:23.086Z,5.75
2022-10-11T04:52:51.428Z,5.57
2022-10-11T04:55:19.896Z,8.27
2022-10-11T04:57:48.237Z,6.85
2022-10-11T05:00:17.564Z,8.00
2022-10-11T05:02:46.156Z,6.47
2022-10-11T05:05:17.527Z,11.85
2022-10-11T05:07:47.280Z,10.25
2022-10-11T05:10:16.070Z,9.65
2022-10-11T05:12:44.612Z,3.85
2022-10-11T05:15:12.822Z,8.60
2022-10-11T05:17:41.412Z,7.00
2022-10-11T05:20:10.975Z,7.53
2022-10-11T05:22:39.318Z,9.00
2022-10-11T05:25:09.836Z,5.70
2022-10-11T05:27:38.207Z,7.43
2022-10-11T05:30:08.003Z,6.18
2022-10-11T05:32:36.700Z,6.13
2022-10-11T05:35:05.513Z,6.30
2022-10-11T05:37:34.000Z,9.07
2022-10-11T05:40:02.296Z,8.38
2022-10-11T05:42:31.962Z,6.75
2022-10-11T05:45:00.542Z,5.63
2022-10-11T05:47:29.272Z,5.85
2022-10-11T05:49:57.753Z,8.18
2022-10-11T05:52:26.691Z,11.73
2022-10-11T05:54:55.003Z,10.85
2022-10-11T05:57:23.548Z,7.30
2022-10-11T05:59:53.576Z,6.22
2022-10-11T06:02:21.965Z,4.18
2022-10-11T06:04:50.261Z,9.40
2022-10-11T06:07:18.814Z,10.45
2022-10-11T06:09:47.151Z,7.63
2022-10-11T06:12:15.524Z,4.15
2022-10-11T06:14:44.121Z,7.35
2022-10-11T06:17:13.984Z,10.18
2022-10-11T06:19:42.298Z,7.30
2022-10-11T06:22:12.572Z,4.88
2022-10-11T06:24:40.854Z,4.60
2022-10-11T06:27:09.433Z,4.68
2022-10-11T06:29:38.150Z,4.93
2022-10-11T06:32:07.755Z,3.53
2022-10-11T06:34:37.764Z,4.68
2022-10-11T06:37:06.206Z,6.05
2022-10-11T06:39:35.023Z,2.92
2022-10-11T06:42:03.822Z,3.05
2022-10-11T06:44:32.144Z,3.78
2022-10-11T06:47:00.400Z,3.05
2022-10-11T06:49:28.961Z,4.68
2022-10-11T06:51:58.647Z,7.75
2022-10-11T06:54:27.127Z,5.40
2022-10-11T06:56:55.608Z,3.17
2022-10-11T06:59:23.889Z,1.20
2022-10-11T07:01:52.165Z,3.30
2022-10-11T07:04:20.708Z,5.65
2022-10-11T07:06:49.126Z,2.20
2022-10-11T07:09:18.799Z,3.40
2022-10-11T07:11:48.956Z,5.10
2022-10-11T07:14:17.256Z,3.00
2022-10-11T07:16:45.678Z,5.65
2022-10-11T07:19:14.306Z,1.88
2022-10-11T07:21:42.790Z,4.80
2022-10-11T07:24:11.286Z,2.45
2022-10-11T07:26:41.806Z,4.15
2022-10-11T07:29:11.817Z,2.38
2022-10-11T07:31:42.102Z,3.50
2022-10-11T07:34:11.398Z,5.13
2022-10-11T07:36:39.963Z,9.65
2022-10-11T07:39:09.842Z,2.70
2022-10-11T07:41:43.169Z,1.83
2022-10-11T07:44:15.523Z,3.70
2022-10-11T07:46:44.095Z,3.40
2022-10-11T07:49:12.869Z,4.60
2022-10-11T07:51:41.340Z,4.47
2022-10-11T07:54:09.940Z,3.85
2022-10-11T07:56:39.981Z,4.32
2022-10-11T07:59:08.462Z,3.03
2022-10-11T08:01:38.737Z,5.80
2022-10-11T08:04:07.131Z,4.22
2022-10-11T08:06:36.693Z,2.90
2022-10-11T08:09:05.755Z,5.40
2022-10-11T08:11:35.987Z,3.60
2022-10-11T08:14:08.704Z,3.13
2022-10-11T08:16:40.031Z,4.70
2022-10-11T08:19:08.726Z,2.53
2022-10-11T08:21:37.095Z,5.57
2022-10-11T08:24:07.087Z,2.30
2022-10-11T08:26:36.028Z,7.43
2022-10-11T08:29:05.292Z,1.52
2022-10-11T08:31:35.708Z,4.15
2022-10-11T08:34:05.966Z,2.25
2022-10-11T08:36:34.820Z,3.55
2022-10-11T08:39:03.507Z,5.85
2022-10-11T08:41:40.190Z,3.13
2022-10-11T08:44:21.333Z,3.63
2022-10-11T08:46:59.523Z,14.95
2022-10-11T08:49:34.295Z,4.68
2022-10-11T08:52:04.716Z,2.15
2022-10-11T08:54:40.351Z,4.00
2022-10-11T08:57:12.551Z,4.88
2022-10-11T08:59:48.430Z,5.30
2022-10-11T09:02:49.289Z,2.00
2022-10-11T09:05:20.925Z,4.22
2022-10-11T09:07:58.452Z,3.10
2022-10-11T09:10:44.119Z,10.10
2022-10-11T09:13:31.661Z,5.28
2022-10-11T09:16:11.477Z,4.60
2022-10-11T09:18:54.069Z,4.85
2022-10-11T09:21:34.285Z,1.50
2022-10-11T09:24:27.216Z,5.18
2022-10-11T09:26:57.331Z,3.00
2022-10-11T09:29:39.437Z,11.38
2022-10-11T09:32:15.829Z,11.27
2022-10-11T09:34:44.868Z,2.90
2022-10-11T09:37:22.107Z,11.93
2022-10-11T09:39:55.861Z,4.80
2022-10-11T09:42:24.428Z,7.25
2022-10-11T09:44:53.059Z,2.65
2022-10-11T09:47:25.902Z,1.85
2022-10-11T09:49:58.475Z,3.80
2022-10-11T09:52:28.720Z,4.60
2022-10-11T09:55:00.137Z,5.55
2022-10-11T09:57:32.518Z,5.35
2022-10-11T10:00:04.980Z,3.53
2022-10-11T10:02:42.399Z,5.85
2022-10-11T10:05:17.704Z,5.20
2022-10-11T10:08:22.597Z,3.70
2022-10-11T10:11:00.344Z,5.07
2022-10-11T10:13:36.055Z,3.60
2022-10-11T10:16:05.647Z,3.28
2022-10-11T10:18:37.175Z,5.88
2022-10-11T10:21:10.140Z,3.33
2022-10-11T10:23:40.483Z,5.55
2022-10-11T10:26:18.255Z,7.30
2022-10-11T10:29:03.985Z,6.82
2022-10-11T10:31:55.212Z,3.53
2022-10-11T10:34:30.864Z,1.58
2022-10-11T10:37:05.456Z,1.45
2022-10-11T10:39:42.310Z,3.40
2022-10-11T10:42:16.425Z,3.55
2022-10-11T10:44:48.389Z,2.70
2022-10-11T10:47:27.354Z,7.78
2022-10-11T10:50:01.889Z,4.00
2022-10-11T10:52:48.214Z,8.77
2022-10-11T10:55:27.115Z,4.70
2022-10-11T10:58:07.187Z,1.20
2022-10-11T11:00:43.248Z,2.88
2022-10-11T11:03:17.841Z,2.63
2022-10-11T11:05:54.740Z,7.85
2022-10-11T11:08:36.667Z,2.70
2022-10-11T11:11:20.386Z,10.63
2022-10-11T11:13:58.230Z,1.65
2022-10-11T11:16:35.183Z,6.22
2022-10-11T11:19:22.618Z,7.18
2022-10-11T11:21:57.463Z,7.80
2022-10-11T11:24:36.121Z,4.72
2022-10-11T11:27:13.941Z,2.17
2022-10-11T11:29:55.517Z,1.23
2022-10-11T11:32:34.633Z,3.83
2022-10-11T11:35:09.464Z,8.00
2022-10-11T11:37:41.490Z,5.97
2022-10-11T11:40:18.040Z,0.90
2022-10-11T11:42:51.571Z,7.95
2022-10-11T11:45:26.105Z,1.88
2022-10-11T11:48:00.261Z,1.80
2022-10-11T11:50:34.278Z,13.63
2022-10-11T11:53:08.015Z,4.00
2022-10-11T11:55:44.498Z,3.50
2022-10-11T11:58:28.895Z,9.90
2022-10-11T12:01:06.835Z,4.57
2022-10-11T12:03:41.839Z,3.15
2022-10-11T12:06:37.912Z,3.72
2022-10-11T12:09:21.688Z,2.65
2022-10-11T12:11:55.605Z,3.33
2022-10-11T12:14:36.056Z,5.30
2022-10-11T12:17:11.540Z,2.55
2022-10-11T12:19:42.939Z,2.60
2022-10-11T12:22:21.320Z,4.22
2022-10-11T12:24:55.940Z,3.67
2022-10-11T12:27:39.732Z,2.15
2022-10-11T12:30:53.244Z,2.63
2022-10-11T12:33:24.115Z,5.47
2022-10-11T12:36:07.342Z,5.95
2022-10-11T12:38:39.756Z,4.50
2022-10-11T12:41:50.131Z,2.85
2022-10-11T12:44:24.038Z,2.67
2022-10-11T12:47:25.233Z,3.88
2022-10-11T12:50:19.761Z,1.30
2022-10-11T12:52:58.667Z,6.82
2022-10-11T12:55:39.531Z,4.20
2022-10-11T12:58:38.415Z,3.35
2022-10-11T13:01:22.113Z,5.82
2022-10-11T13:03:59.927Z,3.55
2022-10-11T13:06:32.553Z,1.10
2022-10-11T13:09:05.408Z,1.17
2022-10-11T13:11:36.823Z,3.72
2022-10-11T13:14:11.086Z,9.75
2022-10-11T13:17:00.158Z,2.13
2022-10-11T13:19:31.350Z,4.60
2022-10-11T13:22:01.883Z,1.08
2022-10-11T13:24:38.027Z,1.25
2022-10-11T13:27:08.146Z,1.88
2022-10-11T13:29:39.429Z,2.78
2022-10-11T13:32:11.941Z,5.40
2022-10-11T13:34:45.506Z,1.30
2022-10-11T13:37:18.393Z,1.15
2022-10-11T13:39:48.914Z,1.15
2022-10-11T13:42:19.665Z,1.08
2022-10-11T13:44:48.683Z,1.80
2022-10-11T13:47:19.744Z,4.47
2022-10-11T13:50:01.605Z,2.38
2022-10-11T13:52:30.438Z,3.00
2022-10-11T13:55:17.743Z,3.95
2022-10-11T13:57:49.110Z,3.28
2022-10-11T14:00:27.794Z,3.10
2022-10-11T14:03:00.408Z,2.17
2022-10-11T14:05:36.576Z,1.33
2022-10-11T14:08:08.135Z,2.20
2022-10-11T14:10:36.755Z,7.88
2022-10-11T14:13:24.318Z,2.83
2022-10-11T14:16:05.308Z,1.90
2022-10-11T14:18:43.561Z,6.13
2022-10-11T14:21:51.322Z,1.88
2022-10-11T14:24:20.640Z,5.60
2022-10-11T14:26:51.900Z,6.28
2022-10-11T14:29:24.600Z,1.73
2022-10-11T14:31:56.500Z,6.57
2022-10-11T14:34:26.963Z,3.70
2022-10-11T14:36:57.197Z,3.55
2022-10-11T14:39:27.752Z,3.45
2022-10-11T14:41:56.493Z,5.50
2022-10-11T14:44:25.317Z,2.08
2022-10-11T14:46:55.171Z,4.15
2022-10-11T14:49:25.661Z,5.75
2022-10-11T14:51:58.234Z,6.00
2022-10-11T14:54:28.961Z,4.60
2022-10-11T14:56:59.493Z,3.85
2022-10-11T14:59:32.712Z,3.45
2022-10-11T15:02:01.540Z,6.22
2022-10-11T15:04:30.618Z,10.10
2022-10-11T15:07:00.897Z,3.35
2022-10-11T15:09:30.374Z,4.35
2022-10-11T15:11:59.770Z,6.00
2022-10-11T15:14:28.490Z,4.15
2022-10-11T15:16:57.185Z,4.63
2022-10-11T15:19:26.740Z,6.55
2022-10-11T15:21:55.260Z,2.35
2022-10-11T15:24:25.340Z,8.35
2022-10-11T15:26:53.819Z,2.92
2022-10-11T15:29:24.158Z,1.63
2022-10-11T15:31:52.647Z,3.15
2022-10-11T15:34:21.475Z,4.72
2022-10-11T15:36:50.319Z,3.20
2022-10-11T15:39:31.454Z,1.92
2022-10-11T15:42:00.012Z,4.22
2022-10-11T15:44:29.139Z,6.45
2022-10-11T15:46:57.570Z,14.85
2022-10-11T15:49:26.476Z,6.28
2022-10-11T15:51:54.890Z,2.50
2022-10-11T15:54:23.300Z,5.53
2022-10-11T15:56:53.468Z,4.93
2022-10-11T15:59:21.744Z,3.60
2022-10-11T16:01:50.595Z,2.53
2022-10-11T16:04:18.993Z,4.50
2022-10-11T16:06:47.569Z,8.15
2022-10-11T16:09:16.153Z,2.65
2022-10-11T16:11:44.429Z,3.85
2022-10-11T16:14:14.344Z,13.35
2022-10-11T16:16:42.829Z,5.53
2022-10-11T16:19:12.272Z,3.47
2022-10-11T16:21:40.586Z,3.35
2022-10-11T16:24:09.547Z,4.82
2022-10-11T16:26:37.835Z,4.82
2022-10-11T16:29:06.539Z,6.95
2022-10-11T16:31:36.260Z,2.88
2022-10-11T16:34:04.899Z,7.00
2022-10-11T16:36:35.934Z,13.98
2022-10-11T16:39:09.066Z,10.95
2022-10-11T16:41:38.063Z,4.47
2022-10-11T16:44:07.081Z,5.97
2022-10-11T16:46:37.533Z,8.25
2022-10-11T16:49:06.581Z,5.93
2022-10-11T16:51:35.417Z,7.72
2022-10-11T16:54:04.412Z,6.82
2022-10-11T16:56:37.370Z,3.85
2022-10-11T16:59:08.615Z,4.07
2022-10-11T17:01:38.974Z,12.10
2022-10-11T17:04:08.030Z,10.02
2022-10-11T17:06:36.721Z,6.28
2022-10-11T17:09:05.742Z,9.63
2022-10-11T17:11:34.492Z,6.60
2022-10-11T17:14:03.507Z,8.27
2022-10-11T17:16:32.603Z,14.00
2022-10-11T17:19:03.218Z,8.45
2022-10-11T17:21:31.741Z,8.80
2022-10-11T17:24:00.411Z,5.10
2022-10-11T17:26:29.530Z,10.93
2022-10-11T17:29:00.351Z,12.07
2022-10-11T17:31:29.923Z,9.90
2022-10-11T17:34:01.012Z,13.65
2022-10-11T17:36:34.847Z,5.63
2022-10-11T17:39:06.536Z,7.60
2022-10-11T17:41:35.348Z,7.45
2022-10-11T17:44:03.902Z,12.07
2022-10-11T17:46:33.473Z,7.97
2022-10-11T17:49:04.778Z,5.97
2022-10-11T17:51:36.512Z,11.98
2022-10-11T17:54:06.209Z,9.40
2022-10-11T17:56:37.849Z,12.93
2022-10-11T17:59:06.996Z,16.25
2022-10-11T18:01:36.263Z,12.98
2022-10-11T18:04:06.669Z,10.63
2022-10-11T18:06:40.792Z,9.80
2022-10-11T18:09:09.409Z,15.65
2022-10-11T18:11:37.930Z,14.75
2022-10-11T18:14:06.692Z,15.18
2022-10-11T18:16:36.318Z,7.80
2022-10-11T18:19:06.823Z,10.73
2022-10-11T18:21:37.898Z,10.20
2022-10-11T18:24:11.314Z,11.50
2022-10-11T18:26:40.212Z,13.23
2022-10-11T18:29:09.071Z,18.33
2022-10-11T18:31:37.639Z,10.82
2022-10-11T18:34:08.435Z,11.05
2022-10-11T18:36:39.375Z,10.10
2022-10-11T18:39:10.005Z,11.80
2022-10-11T18:41:40.363Z,13.02
2022-10-11T18:44:10.994Z,13.45
2022-10-11T18:46:39.588Z,20.60
2022-10-11T18:49:08.847Z,15.43
2022-10-11T18:51:40.599Z,17.95
2022-10-11T18:54:13.962Z,18.75
2022-10-11T18:56:45.441Z,24.55
2022-10-11T18:59:13.806Z,25.33
2022-10-11T19:01:44.169Z,16.85
2022-10-11T19:04:15.979Z,27.83
2022-10-11T19:06:48.273Z,23.45
2022-10-11T19:09:21.578Z,21.67
2022-10-11T19:11:51.172Z,22.60
2022-10-11T19:14:22.320Z,28.20
2022-10-11T19:16:52.241Z,22.20
2022-10-11T19:19:22.518Z,27.83
2022-10-11T19:21:52.675Z,27.42
2022-10-11T19:24:23.027Z,28.20
2022-10-11T19:26:53.036Z,37.13
2022-10-11T19:29:24.231Z,37.72
2022-10-11T19:31:54.194Z,28.48
2022-10-11T19:34:26.859Z,23.05
2022-10-11T19:36:56.931Z,25.85
2022-10-11T19:39:26.223Z,24.80
2022-10-11T19:41:54.603Z,32.63
2022-10-11T19:44:23.154Z,20.65
2022-10-11T19:46:52.709Z,23.05
2022-10-11T19:49:24.773Z,25.25
2022-10-11T19:51:56.323Z,21.27
2022-10-11T19:54:25.208Z,28.02
2022-10-11T19:56:54.199Z,26.95
2022-10-11T19:59:22.579Z,26.23
2022-10-11T20:01:53.253Z,19.00
2022-10-11T20:04:47.490Z,19.83
2022-10-11T20:07:13.591Z,25.00
2022-10-11T20:09:41.810Z,24.02
2022-10-11T20:12:10.270Z,17.50
2022-10-11T20:14:38.519Z,11.93
2022-10-11T20:17:07.368Z,17.75
2022-10-11T20:19:35.725Z,27.02
2022-10-11T20:22:04.358Z,18.75
2022-10-11T20:24:34.629Z,21.73
2022-10-11T20:27:05.038Z,16.88
2022-10-11T20:29:34.516Z,11.55
2022-10-11T20:32:02.996Z,10.52
2022-10-11T20:34:31.982Z,10.20
2022-10-11T20:37:00.480Z,14.45
2022-10-11T20:39:29.150Z,22.65
2022-10-11T20:41:58.851Z,10.40
2022-10-11T20:44:27.560Z,11.75
2022-10-11T20:47:00.290Z,8.50
2022-10-11T20:49:31.575Z,11.93
2022-10-11T20:51:59.875Z,14.93
2022-10-11T20:54:29.900Z,13.63
2022-10-11T20:57:00.339Z,10.52
2022-10-11T20:59:28.900Z,12.32
2022-10-11T21:01:57.400Z,15.27
2022-10-11T21:04:26.013Z,11.02
2022-10-11T21:06:54.528Z,12.55
2022-10-11T21:09:23.143Z,10.30
2022-10-11T21:11:51.669Z,11.82
2022-10-11T21:14:21.545Z,16.58
2022-10-11T21:16:49.919Z,12.30
2022-10-11T21:19:18.539Z,9.98
2022-10-11T21:21:52.566Z,12.68
2022-10-11T21:24:22.643Z,13.63
2022-10-11T21:26:51.218Z,8.25
2022-10-11T21:29:21.041Z,14.18
2022-10-11T21:31:50.007Z,13.82
2022-10-11T21:34:18.369Z,11.38
2022-10-11T21:36:46.726Z,11.48
2022-10-11T21:39:15.165Z,11.98
2022-10-11T21:41:43.429Z,10.65
2022-10-11T21:44:11.898Z,10.43
2022-10-11T21:47:05.518Z,8.93
2022-10-11T21:49:30.304Z,11.43
2022-10-11T21:51:59.011Z,14.13
2022-10-11T21:54:27.678Z,18.05
2022-10-11T21:56:56.147Z,12.73
2022-10-11T21:59:24.478Z,11.70
2022-10-11T22:01:58.078Z,14.35
2022-10-11T22:04:29.632Z,16.98
2022-10-11T22:06:57.968Z,15.63
2022-10-11T22:09:27.728Z,11.63
2022-10-11T22:11:56.350Z,15.48
2022-10-11T22:14:26.013Z,13.27
2022-10-11T22:16:55.693Z,12.63
2022-10-11T22:19:24.660Z,12.70
2022-10-11T22:21:53.145Z,9.52
2022-10-11T22:24:21.498Z,13.68
2022-10-11T22:26:49.975Z,8.38
2022-10-11T22:29:18.666Z,10.15
2022-10-11T22:31:47.026Z,6.68
2022-10-11T22:34:16.850Z,12.70
2022-10-11T22:36:45.129Z,13.52
2022-10-11T22:39:13.803Z,11.45
2022-10-11T22:41:42.285Z,15.18
2022-10-11T22:44:10.526Z,15.40
2022-10-11T22:46:38.801Z,18.40
2022-10-11T22:49:07.473Z,12.77
2022-10-11T22:51:37.132Z,12.57
2022-10-11T22:54:05.832Z,12.10
2022-10-11T22:56:34.403Z,9.60
2022-10-11T22:59:02.721Z,11.68
2022-10-11T23:01:31.204Z,10.93
2022-10-11T23:03:59.783Z,15.38
2022-10-11T23:06:28.083Z,19.73
2022-10-11T23:08:57.761Z,14.45
2022-10-11T23:11:26.372Z,13.75
2022-10-11T23:13:54.731Z,10.73
2022-10-11T23:16:23.085Z,13.98
2022-10-11T23:18:53.703Z,14.85
2022-10-11T23:21:22.595Z,18.48
2022-10-11T23:23:53.695Z,11.07
2022-10-11T23:26:23.559Z,16.58
2022-10-11T23:28:55.272Z,10.63
2022-10-11T23:31:23.893Z,10.50
2022-10-11T23:33:52.396Z,11.02
2022-10-11T23:36:23.202Z,20.23
2022-10-11T23:38:53.282Z,18.15
2022-10-11T23:41:24.424Z,21.40
2022-10-11T23:43:53.393Z,11.40
2022-10-11T23:46:22.167Z,17.05
2022-10-11T23:48:50.686Z,12.73
2022-10-11T23:51:19.044Z,27.13
2022-10-11T23:53:47.639Z,11.05
2022-10-11T23:56:16.449Z,19.58
2022-10-11T23:58:46.431Z,23.48
